sensor_id;sensor_type;location;lat;lon;timestamp;P1;durP1;ratioP1;P2;durP2;ratioP2
30010;SDS011;16851;53.564;8.112;2022-07-01T00:04:25;8.10;;;4.00;;
30010;SDS011;16851;53.564;8.112;2022-07-01T00:09:48;11.10;;;4.25;;
30010;SDS011;16851;53.564;8.112;2022-07-01T00:14:50;12.75;;;4.55;;
30010;SDS011;16851;53.564;8.112;2022-07-01T00:19:57;11.45;;;4.05;;
30010;SDS011;16851;53.564;8.112;2022-07-01T00:25:00;5.80;;;3.70;;
30010;SDS011;16851;53.564;8.112;2022-07-01T00:30:02;5.88;;;3.22;;
30010;SDS011;16851;53.564;8.112;2022-07-01T00:35:05;5.97;;;4.30;;
30010;SDS011;16851;53.564;8.112;2022-07-01T00:40:15;7.22;;;4.45;;
30010;SDS011;16851;53.564;8.112;2022-07-01T00:45:21;9.20;;;5.22;;
30010;SDS011;16851;53.564;8.112;2022-07-01T00:50:28;8.23;;;5.45;;
30010;SDS011;16851;53.564;8.112;2022-07-01T00:55:35;16.65;;;8.30;;
30010;SDS011;16851;53.564;8.112;2022-07-01T01:00:37;20.85;;;8.55;;
30010;SDS011;16851;53.564;8.112;2022-07-01T01:05:41;28.13;;;7.97;;
30010;SDS011;16851;53.564;8.112;2022-07-01T01:10:45;20.35;;;6.78;;
30010;SDS011;16851;53.564;8.112;2022-07-01T01:15:47;23.33;;;6.63;;
30010;SDS011;16851;53.564;8.112;2022-07-01T01:20:49;28.95;;;6.15;;
30010;SDS011;16851;53.564;8.112;2022-07-01T01:25:51;28.98;;;6.13;;
30010;SDS011;16851;53.564;8.112;2022-07-01T01:30:57;39.65;;;6.47;;
30010;SDS011;16851;53.564;8.112;2022-07-01T01:36:02;28.40;;;5.78;;
30010;SDS011;16851;53.564;8.112;2022-07-01T01:41:07;27.60;;;5.28;;
30010;SDS011;16851;53.564;8.112;2022-07-01T01:46:11;30.40;;;5.05;;
30010;SDS011;16851;53.564;8.112;2022-07-01T01:51:17;24.95;;;4.72;;
30010;SDS011;16851;53.564;8.112;2022-07-01T01:56:22;24.40;;;5.78;;
30010;SDS011;16851;53.564;8.112;2022-07-01T02:01:26;25.67;;;3.95;;
30010;SDS011;16851;53.564;8.112;2022-07-01T02:06:34;21.30;;;3.88;;
30010;SDS011;16851;53.564;8.112;2022-07-01T02:11:38;15.52;;;3.47;;
30010;SDS011;16851;53.564;8.112;2022-07-01T02:16:44;23.55;;;3.92;;
30010;SDS011;16851;53.564;8.112;2022-07-01T02:21:48;10.57;;;3.10;;
30010;SDS011;16851;53.564;8.112;2022-07-01T02:26:52;16.90;;;2.53;;
30010;SDS011;16851;53.564;8.112;2022-07-01T02:31:56;8.45;;;1.98;;
30010;SDS011;16851;53.564;8.112;2022-07-01T02:37:00;7.57;;;1.85;;
30010;SDS011;16851;53.564;8.112;2022-07-01T02:42:05;13.48;;;2.00;;
30010;SDS011;16851;53.564;8.112;2022-07-01T02:47:34;11.73;;;1.70;;
30010;SDS011;16851;53.564;8.112;2022-07-01T02:52:37;4.80;;;1.30;;
30010;SDS011;16851;53.564;8.112;2022-07-01T02:57:42;7.38;;;1.50;;
30010;SDS011;16851;53.564;8.112;2022-07-01T03:02:44;4.25;;;1.23;;
30010;SDS011;16851;53.564;8.112;2022-07-01T03:07:47;5.63;;;1.33;;
30010;SDS011;16851;53.564;8.112;2022-07-01T03:12:49;7.07;;;1.33;;
30010;SDS011;16851;53.564;8.112;2022-07-01T03:17:56;3.72;;;1.10;;
30010;SDS011;16851;53.564;8.112;2022-07-01T03:23:00;6.25;;;1.30;;
30010;SDS011;16851;53.564;8.112;2022-07-01T03:28:07;6.93;;;1.58;;
30010;SDS011;16851;53.564;8.112;2022-07-01T03:33:08;7.78;;;1.45;;
30010;SDS011;16851;53.564;8.112;2022-07-01T03:38:10;7.30;;;1.83;;
30010;SDS011;16851;53.564;8.112;2022-07-01T03:43:15;5.15;;;1.40;;
30010;SDS011;16851;53.564;8.112;2022-07-01T03:48:24;6.80;;;1.50;;
30010;SDS011;16851;53.564;8.112;2022-07-01T03:53:29;8.18;;;1.58;;
30010;SDS011;16851;53.564;8.112;2022-07-01T03:58:50;7.05;;;1.40;;
30010;SDS011;16851;53.564;8.112;2022-07-01T04:03:55;7.22;;;1.58;;
30010;SDS011;16851;53.564;8.112;2022-07-01T04:09:00;4.93;;;1.15;;
30010;SDS011;16851;53.564;8.112;2022-07-01T04:14:03;2.22;;;1.10;;
30010;SDS011;16851;53.564;8.112;2022-07-01T04:19:06;2.88;;;0.90;;
30010;SDS011;16851;53.564;8.112;2022-07-01T04:24:09;5.57;;;1.10;;
30010;SDS011;16851;53.564;8.112;2022-07-01T04:29:18;3.60;;;1.10;;
30010;SDS011;16851;53.564;8.112;2022-07-01T04:34:23;5.43;;;1.45;;
30010;SDS011;16851;53.564;8.112;2022-07-01T04:39:25;2.10;;;1.20;;
30010;SDS011;16851;53.564;8.112;2022-07-01T04:44:31;4.18;;;1.30;;
30010;SDS011;16851;53.564;8.112;2022-07-01T04:49:43;5.47;;;1.25;;
30010;SDS011;16851;53.564;8.112;2022-07-01T04:54:48;3.70;;;1.20;;
30010;SDS011;16851;53.564;8.112;2022-07-01T04:59:57;4.00;;;1.48;;
30010;SDS011;16851;53.564;8.112;2022-07-01T05:05:03;6.50;;;1.30;;
30010;SDS011;16851;53.564;8.112;2022-07-01T05:10:08;5.72;;;1.42;;
30010;SDS011;16851;53.564;8.112;2022-07-01T05:15:10;5.65;;;1.58;;
30010;SDS011;16851;53.564;8.112;2022-07-01T05:20:13;7.95;;;2.05;;
30010;SDS011;16851;53.564;8.112;2022-07-01T05:25:33;5.90;;;2.08;;
30010;SDS011;16851;53.564;8.112;2022-07-01T05:30:37;2.90;;;1.50;;
30010;SDS011;16851;53.564;8.112;2022-07-01T05:35:42;7.38;;;2.28;;
30010;SDS011;16851;53.564;8.112;2022-07-01T05:40:46;8.90;;;2.35;;
30010;SDS011;16851;53.564;8.112;2022-07-01T05:45:49;4.90;;;2.20;;
30010;SDS011;16851;53.564;8.112;2022-07-01T05:50:53;7.15;;;2.47;;
30010;SDS011;16851;53.564;8.112;2022-07-01T05:56:00;2.85;;;2.10;;
30010;SDS011;16851;53.564;8.112;2022-07-01T06:01:04;5.45;;;2.47;;
30010;SDS011;16851;53.564;8.112;2022-07-01T06:06:11;7.60;;;2.50;;
30010;SDS011;16851;53.564;8.112;2022-07-01T06:11:19;4.35;;;2.60;;
30010;SDS011;16851;53.564;8.112;2022-07-01T06:16:28;5.13;;;2.58;;
30010;SDS011;16851;53.564;8.112;2022-07-01T06:21:32;5.25;;;2.50;;
30010;SDS011;16851;53.564;8.112;2022-07-01T06:26:35;7.82;;;2.75;;
30010;SDS011;16851;53.564;8.112;2022-07-01T06:31:39;4.93;;;3.22;;
30010;SDS011;16851;53.564;8.112;2022-07-01T06:36:44;5.63;;;2.97;;
30010;SDS011;16851;53.564;8.112;2022-07-01T06:41:48;6.00;;;3.17;;
30010;SDS011;16851;53.564;8.112;2022-07-01T06:46:50;5.97;;;3.40;;
30010;SDS011;16851;53.564;8.112;2022-07-01T06:51:51;5.22;;;3.30;;
30010;SDS011;16851;53.564;8.112;2022-07-01T06:56:56;6.88;;;4.00;;
30010;SDS011;16851;53.564;8.112;2022-07-01T07:02:03;5.60;;;3.95;;
30010;SDS011;16851;53.564;8.112;2022-07-01T07:07:09;6.38;;;4.10;;
30010;SDS011;16851;53.564;8.112;2022-07-01T07:12:11;8.85;;;4.45;;
30010;SDS011;16851;53.564;8.112;2022-07-01T07:17:20;7.10;;;3.95;;
30010;SDS011;16851;53.564;8.112;2022-07-01T07:22:23;8.45;;;4.55;;
30010;SDS011;16851;53.564;8.112;2022-07-01T07:27:28;6.97;;;4.18;;
30010;SDS011;16851;53.564;8.112;2022-07-01T07:32:34;7.47;;;4.07;;
30010;SDS011;16851;53.564;8.112;2022-07-01T07:37:40;7.68;;;3.83;;
30010;SDS011;16851;53.564;8.112;2022-07-01T07:42:47;7.40;;;3.70;;
30010;SDS011;16851;53.564;8.112;2022-07-01T07:48:00;8.02;;;3.75;;
30010;SDS011;16851;53.564;8.112;2022-07-01T07:53:12;6.18;;;4.40;;
30010;SDS011;16851;53.564;8.112;2022-07-01T07:58:20;8.10;;;3.90;;
30010;SDS011;16851;53.564;8.112;2022-07-01T08:03:24;7.25;;;4.50;;
30010;SDS011;16851;53.564;8.112;2022-07-01T08:08:26;9.60;;;4.82;;
30010;SDS011;16851;53.564;8.112;2022-07-01T08:13:31;6.13;;;4.30;;
30010;SDS011;16851;53.564;8.112;2022-07-01T08:18:34;9.43;;;5.50;;
30010;SDS011;16851;53.564;8.112;2022-07-01T08:23:36;9.27;;;6.07;;
30010;SDS011;16851;53.564;8.112;2022-07-01T08:28:43;11.85;;;7.13;;
30010;SDS011;16851;53.564;8.112;2022-07-01T08:33:49;14.02;;;7.85;;
30010;SDS011;16851;53.564;8.112;2022-07-01T08:38:51;13.98;;;9.23;;
30010;SDS011;16851;53.564;8.112;2022-07-01T08:43:57;13.25;;;9.75;;
30010;SDS011;16851;53.564;8.112;2022-07-01T08:49:02;13.02;;;9.00;;
30010;SDS011;16851;53.564;8.112;2022-07-01T08:54:07;16.10;;;9.52;;
30010;SDS011;16851;53.564;8.112;2022-07-01T08:59:11;16.00;;;9.98;;
30010;SDS011;16851;53.564;8.112;2022-07-01T09:04:15;19.05;;;10.63;;
30010;SDS011;16851;53.564;8.112;2022-07-01T09:09:19;12.55;;;8.90;;
30010;SDS011;16851;53.564;8.112;2022-07-01T09:14:23;12.80;;;10.13;;
30010;SDS011;16851;53.564;8.112;2022-07-01T09:19:37;34.45;;;10.80;;
30010;SDS011;16851;53.564;8.112;2022-07-01T09:24:46;13.65;;;10.02;;
30010;SDS011;16851;53.564;8.112;2022-07-01T09:29:58;15.48;;;9.85;;
30010;SDS011;16851;53.564;8.112;2022-07-01T09:34:59;12.00;;;9.15;;
30010;SDS011;16851;53.564;8.112;2022-07-01T09:40:04;12.95;;;8.77;;
30010;SDS011;16851;53.564;8.112;2022-07-01T09:45:08;15.02;;;9.02;;
30010;SDS011;16851;53.564;8.112;2022-07-01T09:50:12;11.95;;;8.43;;
30010;SDS011;16851;53.564;8.112;2022-07-01T09:55:14;11.18;;;8.32;;
30010;SDS011;16851;53.564;8.112;2022-07-01T10:00:16;13.88;;;8.52;;
30010;SDS011;16851;53.564;8.112;2022-07-01T10:05:19;13.70;;;9.05;;
30010;SDS011;16851;53.564;8.112;2022-07-01T10:10:48;11.43;;;7.47;;
30010;SDS011;16851;53.564;8.112;2022-07-01T10:15:56;11.95;;;7.97;;
30010;SDS011;16851;53.564;8.112;2022-07-01T10:20:59;13.73;;;8.32;;
30010;SDS011;16851;53.564;8.112;2022-07-01T10:26:08;17.40;;;9.68;;
30010;SDS011;16851;53.564;8.112;2022-07-01T10:31:14;14.90;;;9.13;;
30010;SDS011;16851;53.564;8.112;2022-07-01T10:41:33;14.90;;;7.90;;
30010;SDS011;16851;53.564;8.112;2022-07-01T10:56:53;28.45;;;8.27;;
30010;SDS011;16851;53.564;8.112;2022-07-01T11:01:58;10.90;;;5.63;;
30010;SDS011;16851;53.564;8.112;2022-07-01T11:07:15;9.93;;;5.68;;
30010;SDS011;16851;53.564;8.112;2022-07-01T11:18:22;11.07;;;5.75;;
30010;SDS011;16851;53.564;8.112;2022-07-01T11:23:27;10.52;;;5.53;;
30010;SDS011;16851;53.564;8.112;2022-07-01T11:28:46;9.57;;;4.78;;
30010;SDS011;16851;53.564;8.112;2022-07-01T11:33:52;9.95;;;5.60;;
30010;SDS011;16851;53.564;8.112;2022-07-01T11:38:56;8.55;;;5.25;;
30010;SDS011;16851;53.564;8.112;2022-07-01T11:44:27;10.93;;;5.20;;
30010;SDS011;16851;53.564;8.112;2022-07-01T11:49:32;10.00;;;4.38;;
30010;SDS011;16851;53.564;8.112;2022-07-01T11:54:39;7.30;;;3.47;;
30010;SDS011;16851;53.564;8.112;2022-07-01T11:59:41;14.48;;;4.47;;
30010;SDS011;16851;53.564;8.112;2022-07-01T12:04:47;7.43;;;3.78;;
30010;SDS011;16851;53.564;8.112;2022-07-01T12:09:54;8.93;;;4.38;;
30010;SDS011;16851;53.564;8.112;2022-07-01T12:14:57;9.77;;;4.43;;
30010;SDS011;16851;53.564;8.112;2022-07-01T12:20:02;6.95;;;3.70;;
30010;SDS011;16851;53.564;8.112;2022-07-01T12:25:05;14.48;;;4.80;;
30010;SDS011;16851;53.564;8.112;2022-07-01T12:30:09;10.63;;;4.70;;
30010;SDS011;16851;53.564;8.112;2022-07-01T12:35:13;7.43;;;4.85;;
30010;SDS011;16851;53.564;8.112;2022-07-01T12:40:33;11.52;;;5.22;;
30010;SDS011;16851;53.564;8.112;2022-07-01T12:45:38;10.10;;;4.65;;
30010;SDS011;16851;53.564;8.112;2022-07-01T12:50:43;7.35;;;4.43;;
30010;SDS011;16851;53.564;8.112;2022-07-01T12:55:57;8.98;;;5.43;;
30010;SDS011;16851;53.564;8.112;2022-07-01T13:00:59;8.07;;;3.90;;
30010;SDS011;16851;53.564;8.112;2022-07-01T13:06:01;9.63;;;4.57;;
30010;SDS011;16851;53.564;8.112;2022-07-01T13:11:10;4.65;;;3.28;;
30010;SDS011;16851;53.564;8.112;2022-07-01T13:16:16;7.07;;;2.92;;
30010;SDS011;16851;53.564;8.112;2022-07-01T13:21:21;8.18;;;3.10;;
30010;SDS011;16851;53.564;8.112;2022-07-01T13:26:23;6.32;;;2.97;;
30010;SDS011;16851;53.564;8.112;2022-07-01T13:31:27;8.65;;;3.13;;
30010;SDS011;16851;53.564;8.112;2022-07-01T13:36:29;6.40;;;2.80;;
30010;SDS011;16851;53.564;8.112;2022-07-01T13:41:33;4.53;;;3.15;;
30010;SDS011;16851;53.564;8.112;2022-07-01T13:46:35;9.13;;;2.65;;
30010;SDS011;16851;53.564;8.112;2022-07-01T13:51:37;7.07;;;3.10;;
30010;SDS011;16851;53.564;8.112;2022-07-01T13:56:39;7.70;;;3.20;;
30010;SDS011;16851;53.564;8.112;2022-07-01T14:01:44;9.25;;;3.38;;
30010;SDS011;16851;53.564;8.112;2022-07-01T14:06:50;10.90;;;3.97;;
30010;SDS011;16851;53.564;8.112;2022-07-01T14:11:58;9.27;;;4.00;;
30010;SDS011;16851;53.564;8.112;2022-07-01T14:17:05;6.60;;;3.15;;
30010;SDS011;16851;53.564;8.112;2022-07-01T14:22:07;9.38;;;1.85;;
30010;SDS011;16851;53.564;8.112;2022-07-01T14:27:11;5.88;;;1.40;;
30010;SDS011;16851;53.564;8.112;2022-07-01T14:32:15;4.38;;;1.10;;
30010;SDS011;16851;53.564;8.112;2022-07-01T14:37:17;6.53;;;1.00;;
30010;SDS011;16851;53.564;8.112;2022-07-01T14:42:19;2.85;;;0.90;;
30010;SDS011;16851;53.564;8.112;2022-07-01T14:47:21;7.55;;;1.15;;
30010;SDS011;16851;53.564;8.112;2022-07-01T14:52:24;4.90;;;1.20;;
30010;SDS011;16851;53.564;8.112;2022-07-01T14:57:27;2.92;;;0.90;;
30010;SDS011;16851;53.564;8.112;2022-07-01T15:02:29;4.90;;;1.15;;
30010;SDS011;16851;53.564;8.112;2022-07-01T15:07:33;6.78;;;1.23;;
30010;SDS011;16851;53.564;8.112;2022-07-01T15:12:35;7.00;;;1.88;;
30010;SDS011;16851;53.564;8.112;2022-07-01T15:17:40;5.45;;;1.08;;
30010;SDS011;16851;53.564;8.112;2022-07-01T15:22:46;4.35;;;0.93;;
30010;SDS011;16851;53.564;8.112;2022-07-01T15:27:49;3.22;;;0.90;;
30010;SDS011;16851;53.564;8.112;2022-07-01T15:32:54;4.00;;;1.02;;
30010;SDS011;16851;53.564;8.112;2022-07-01T15:37:58;4.85;;;1.02;;
30010;SDS011;16851;53.564;8.112;2022-07-01T15:43:03;5.13;;;1.00;;
30010;SDS011;16851;53.564;8.112;2022-07-01T15:48:10;5.05;;;1.00;;
30010;SDS011;16851;53.564;8.112;2022-07-01T15:53:13;3.92;;;0.90;;
30010;SDS011;16851;53.564;8.112;2022-07-01T15:58:17;4.43;;;1.00;;
30010;SDS011;16851;53.564;8.112;2022-07-01T16:03:22;10.00;;;1.60;;
30010;SDS011;16851;53.564;8.112;2022-07-01T16:08:24;6.07;;;1.27;;
30010;SDS011;16851;53.564;8.112;2022-07-01T16:13:34;7.90;;;1.67;;
30010;SDS011;16851;53.564;8.112;2022-07-01T16:18:42;2.75;;;0.70;;
30010;SDS011;16851;53.564;8.112;2022-07-01T16:23:46;3.95;;;0.85;;
30010;SDS011;16851;53.564;8.112;2022-07-01T16:28:53;2.63;;;0.80;;
30010;SDS011;16851;53.564;8.112;2022-07-01T16:33:58;6.13;;;0.90;;
30010;SDS011;16851;53.564;8.112;2022-07-01T16:39:05;5.28;;;1.10;;
30010;SDS011;16851;53.564;8.112;2022-07-01T16:49:46;5.35;;;0.90;;
30010;SDS011;16851;53.564;8.112;2022-07-01T16:54:56;4.78;;;1.10;;
30010;SDS011;16851;53.564;8.112;2022-07-01T17:00:03;7.07;;;1.20;;
30010;SDS011;16851;53.564;8.112;2022-07-01T17:05:07;8.07;;;1.20;;
30010;SDS011;16851;53.564;8.112;2022-07-01T17:10:12;5.03;;;1.05;;
30010;SDS011;16851;53.564;8.112;2022-07-01T17:15:17;7.90;;;1.48;;
30010;SDS011;16851;53.564;8.112;2022-07-01T17:20:20;6.57;;;1.17;;
30010;SDS011;16851;53.564;8.112;2022-07-01T17:30:34;3.85;;;1.10;;
30010;SDS011;16851;53.564;8.112;2022-07-01T17:35:43;4.88;;;0.90;;
30010;SDS011;16851;53.564;8.112;2022-07-01T17:40:51;5.05;;;1.00;;
30010;SDS011;16851;53.564;8.112;2022-07-01T17:45:57;7.07;;;1.60;;
30010;SDS011;16851;53.564;8.112;2022-07-01T17:51:00;6.80;;;1.25;;
30010;SDS011;16851;53.564;8.112;2022-07-01T17:56:05;2.55;;;0.90;;
30010;SDS011;16851;53.564;8.112;2022-07-01T18:01:10;6.90;;;1.13;;
30010;SDS011;16851;53.564;8.112;2022-07-01T18:06:14;4.25;;;1.00;;
30010;SDS011;16851;53.564;8.112;2022-07-01T18:11:43;6.15;;;1.27;;
30010;SDS011;16851;53.564;8.112;2022-07-01T18:22:45;5.93;;;1.38;;
30010;SDS011;16851;53.564;8.112;2022-07-01T18:27:55;5.60;;;1.52;;
30010;SDS011;16851;53.564;8.112;2022-07-01T18:33:07;7.03;;;1.33;;
30010;SDS011;16851;53.564;8.112;2022-07-01T18:38:14;5.35;;;1.15;;
30010;SDS011;16851;53.564;8.112;2022-07-01T18:43:16;3.88;;;0.98;;
30010;SDS011;16851;53.564;8.112;2022-07-01T18:48:23;4.75;;;1.02;;
30010;SDS011;16851;53.564;8.112;2022-07-01T18:53:28;8.13;;;1.10;;
30010;SDS011;16851;53.564;8.112;2022-07-01T18:58:32;4.13;;;1.25;;
30010;SDS011;16851;53.564;8.112;2022-07-01T19:03:34;7.35;;;0.95;;
30010;SDS011;16851;53.564;8.112;2022-07-01T19:08:38;6.93;;;1.40;;
30010;SDS011;16851;53.564;8.112;2022-07-01T19:13:42;5.72;;;1.33;;
30010;SDS011;16851;53.564;8.112;2022-07-01T19:18:44;7.13;;;1.30;;
30010;SDS011;16851;53.564;8.112;2022-07-01T19:23:50;4.00;;;0.98;;
30010;SDS011;16851;53.564;8.112;2022-07-01T19:28:53;4.35;;;1.30;;
30010;SDS011;16851;53.564;8.112;2022-07-01T19:33:55;5.95;;;1.40;;
30010;SDS011;16851;53.564;8.112;2022-07-01T19:38:57;4.30;;;1.20;;
30010;SDS011;16851;53.564;8.112;2022-07-01T19:43:59;4.80;;;0.98;;
30010;SDS011;16851;53.564;8.112;2022-07-01T19:49:05;5.40;;;1.07;;
30010;SDS011;16851;53.564;8.112;2022-07-01T19:54:07;4.10;;;1.13;;
30010;SDS011;16851;53.564;8.112;2022-07-01T19:59:12;4.93;;;0.98;;
30010;SDS011;16851;53.564;8.112;2022-07-01T20:04:19;5.60;;;1.25;;
30010;SDS011;16851;53.564;8.112;2022-07-01T20:09:22;4.30;;;1.20;;
30010;SDS011;16851;53.564;8.112;2022-07-01T20:14:26;2.60;;;0.90;;
30010;SDS011;16851;53.564;8.112;2022-07-01T20:19:30;6.88;;;1.40;;
30010;SDS011;16851;53.564;8.112;2022-07-01T20:24:35;6.05;;;1.10;;
30010;SDS011;16851;53.564;8.112;2022-07-01T20:29:39;6.47;;;1.13;;
30010;SDS011;16851;53.564;8.112;2022-07-01T20:34:41;6.70;;;1.10;;
30010;SDS011;16851;53.564;8.112;2022-07-01T20:39:43;5.13;;;1.13;;
30010;SDS011;16851;53.564;8.112;2022-07-01T20:44:45;4.00;;;1.30;;
30010;SDS011;16851;53.564;8.112;2022-07-01T20:49:47;8.68;;;1.92;;
30010;SDS011;16851;53.564;8.112;2022-07-01T20:54:51;4.43;;;1.23;;
30010;SDS011;16851;53.564;8.112;2022-07-01T20:59:53;5.18;;;1.30;;
30010;SDS011;16851;53.564;8.112;2022-07-01T21:04:55;7.85;;;2.10;;
30010;SDS011;16851;53.564;8.112;2022-07-01T21:09:57;5.90;;;1.50;;
30010;SDS011;16851;53.564;8.112;2022-07-01T21:15:01;5.40;;;1.67;;
30010;SDS011;16851;53.564;8.112;2022-07-01T21:20:07;4.88;;;1.50;;
30010;SDS011;16851;53.564;8.112;2022-07-01T21:25:10;7.63;;;1.65;;
30010;SDS011;16851;53.564;8.112;2022-07-01T21:30:14;4.70;;;1.70;;
30010;SDS011;16851;53.564;8.112;2022-07-01T21:35:21;6.50;;;1.70;;
30010;SDS011;16851;53.564;8.112;2022-07-01T21:40:27;3.88;;;1.40;;
30010;SDS011;16851;53.564;8.112;2022-07-01T21:45:32;3.67;;;1.40;;
30010;SDS011;16851;53.564;8.112;2022-07-01T21:50:35;6.93;;;1.73;;
30010;SDS011;16851;53.564;8.112;2022-07-01T21:55:39;6.38;;;1.30;;
30010;SDS011;16851;53.564;8.112;2022-07-01T22:00:48;3.35;;;1.33;;
30010;SDS011;16851;53.564;8.112;2022-07-01T22:05:57;5.05;;;1.70;;
30010;SDS011;16851;53.564;8.112;2022-07-01T22:11:34;6.03;;;2.08;;
30010;SDS011;16851;53.564;8.112;2022-07-01T22:16:39;5.57;;;1.58;;
30010;SDS011;16851;53.564;8.112;2022-07-01T22:21:41;5.43;;;1.60;;
30010;SDS011;16851;53.564;8.112;2022-07-01T22:26:47;5.22;;;1.70;;
30010;SDS011;16851;53.564;8.112;2022-07-01T22:31:50;4.18;;;1.70;;
30010;SDS011;16851;53.564;8.112;2022-07-01T22:36:54;7.95;;;1.45;;
30010;SDS011;16851;53.564;8.112;2022-07-01T22:41:59;3.92;;;2.30;;
30010;SDS011;16851;53.564;8.112;2022-07-01T22:47:03;7.68;;;1.95;;
30010;SDS011;16851;53.564;8.112;2022-07-01T22:52:18;2.78;;;1.60;;
30010;SDS011;16851;53.564;8.112;2022-07-01T22:58:07;6.75;;;2.17;;
30010;SDS011;16851;53.564;8.112;2022-07-01T23:02:51;4.55;;;1.98;;
30010;SDS011;16851;53.564;8.112;2022-07-01T23:08:02;7.05;;;2.00;;
30010;SDS011;16851;53.564;8.112;2022-07-01T23:13:10;9.10;;;3.05;;
30010;SDS011;16851;53.564;8.112;2022-07-01T23:18:18;5.97;;;2.10;;
30010;SDS011;16851;53.564;8.112;2022-07-01T23:23:25;9.98;;;2.60;;
30010;SDS011;16851;53.564;8.112;2022-07-01T23:28:29;5.45;;;1.60;;
30010;SDS011;16851;53.564;8.112;2022-07-01T23:33:38;2.80;;;1.70;;
30010;SDS011;16851;53.564;8.112;2022-07-01T23:38:43;8.38;;;2.13;;
30010;SDS011;16851;53.564;8.112;2022-07-01T23:43:47;5.93;;;2.38;;
30010;SDS011;16851;53.564;8.112;2022-07-01T23:48:50;7.03;;;2.50;;
30010;SDS011;16851;53.564;8.112;2022-07-01T23:53:55;4.72;;;2.10;;
30010;SDS011;16851;53.564;8.112;2022-07-01T23:59:11;4.25;;;1.70;;
